Time;durP1;ratioP1;P1;durP2;ratioP2;P2;SDS_P1;SDS_P2;PMS_P1;PMS_P2;Temp;Humidity;BMP_temperature;BMP_pressure;BME280_temperature;BME280_humidity;BME280_pressure;Samples;Min_cycle;Max_cycle;Signal;HPM_P1;HPM_P2
2021/08/03 00:00:31;;;;;;;3.67;1.23;;;;;;;;;;5051084;28;20201;-77
2021/08/03 00:02:58;;;;;;;0.90;0.70;;;;;;;;;;5036345;28;20189;-77
2021/08/03 00:05:27;;;;;;;6.35;1.75;;;;;;;;;;5052399;28;20174;-77
2021/08/03 00:08:03;;;;;;;0.80;0.73;;;;;;;;;;5061947;28;20205;-77
2021/08/03 00:10:30;;;;;;;1.55;1.45;;;;;;;;;;5043819;28;20222;-77
2021/08/03 00:12:56;;;;;;;0.80;0.70;;;;;;;;;;5056683;28;20248;-77
2021/08/03 00:15:23;;;;;;;2.08;1.98;;;;;;;;;;5053058;28;20182;-77
2021/08/03 00:17:49;;;;;;;1.38;1.25;;;;;;;;;;5057149;28;20190;-78
2021/08/03 00:20:15;;;;;;;1.02;0.90;;;;;;;;;;5042071;28;20194;-77
2021/08/03 00:22:42;;;;;;;1.25;1.15;;;;;;;;;;5057566;28;20205;-77
2021/08/03 00:25:09;;;;;;;2.38;1.15;;;;;;;;;;5058695;28;20170;-77
2021/08/03 00:27:35;;;;;;;1.42;1.33;;;;;;;;;;5047483;28;20297;-77
2021/08/03 00:30:02;;;;;;;2.67;1.75;;;;;;;;;;5045615;28;20193;-78
2021/08/03 00:32:28;;;;;;;1.08;0.98;;;;;;;;;;5033384;28;20248;-75
2021/08/03 00:34:54;;;;;;;0.85;0.82;;;;;;;;;;5055814;28;20186;-77
2021/08/03 00:37:20;;;;;;;1.53;1.43;;;;;;;;;;5048340;28;20186;-77
2021/08/03 00:39:45;;;;;;;1.47;1.00;;;;;;;;;;5055455;28;20455;-77
2021/08/03 00:42:11;;;;;;;1.40;1.30;;;;;;;;;;5050372;28;20987;-77
2021/08/03 00:44:38;;;;;;;2.10;1.77;;;;;;;;;;5036689;28;20444;-77
2021/08/03 00:47:05;;;;;;;1.15;1.05;;;;;;;;;;5037627;28;20911;-77
2021/08/03 00:49:31;;;;;;;2.28;1.10;;;;;;;;;;5041203;28;20186;-77
2021/08/03 00:51:57;;;;;;;1.27;1.17;;;;;;;;;;5057892;28;20309;-77
2021/08/03 00:54:23;;;;;;;0.80;0.70;;;;;;;;;;5060824;28;20425;-77
2021/08/03 00:56:49;;;;;;;1.30;1.20;;;;;;;;;;5060529;28;20439;-77
2021/08/03 00:59:15;;;;;;;1.48;1.38;;;;;;;;;;5050845;28;20468;-77
2021/08/03 01:01:41;;;;;;;7.30;1.30;;;;;;;;;;5042450;28;20231;-77
2021/08/03 01:04:09;;;;;;;0.80;0.73;;;;;;;;;;5061023;28;20432;-77
2021/08/03 01:06:47;;;;;;;3.17;2.10;;;;;;;;;;5060251;28;21050;-77
2021/08/03 01:09:24;;;;;;;1.00;0.77;;;;;;;;;;5059812;28;20178;-77
2021/08/03 01:11:55;;;;;;;1.33;1.23;;;;;;;;;;5061132;28;20193;-78
2021/08/03 01:14:34;;;;;;;1.00;0.93;;;;;;;;;;5059275;28;20200;-78
2021/08/03 01:17:11;;;;;;;1.27;1.17;;;;;;;;;;5064736;28;20181;-77
2021/08/03 01:19:49;;;;;;;0.90;0.80;;;;;;;;;;5059327;28;20194;-78
2021/08/03 01:22:32;;;;;;;0.90;0.70;;;;;;;;;;5051982;28;20255;-78
2021/08/03 01:25:01;;;;;;;1.02;0.82;;;;;;;;;;5049496;28;20182;-77
2021/08/03 01:27:46;;;;;;;0.80;0.60;;;;;;;;;;5044793;28;20209;-78
2021/08/03 01:30:12;;;;;;;1.48;1.00;;;;;;;;;;5048288;28;20182;-77
2021/08/03 01:32:42;;;;;;;1.27;1.17;;;;;;;;;;5042444;28;20290;-77
2021/08/03 01:35:08;;;;;;;0.80;0.70;;;;;;;;;;5057458;28;20188;-77
2021/08/03 01:37:35;;;;;;;0.80;0.80;;;;;;;;;;5059264;28;20186;-77
2021/08/03 01:40:06;;;;;;;1.20;1.10;;;;;;;;;;5043018;28;20182;-78
2021/08/03 01:42:32;;;;;;;2.78;1.88;;;;;;;;;;5056663;28;20210;-77
2021/08/03 01:44:59;;;;;;;1.10;1.00;;;;;;;;;;5060062;28;20179;-77
2021/08/03 01:47:26;;;;;;;0.90;0.70;;;;;;;;;;5049078;28;20676;-77
2021/08/03 01:49:53;;;;;;;0.95;0.82;;;;;;;;;;5044267;28;20190;-77
2021/08/03 01:52:19;;;;;;;1.02;0.75;;;;;;;;;;5069927;28;20228;-76
2021/08/03 01:54:46;;;;;;;1.92;1.83;;;;;;;;;;5064089;28;20539;-77
2021/08/03 01:57:14;;;;;;;1.10;0.90;;;;;;;;;;5066927;28;20179;-76
2021/08/03 01:59:42;;;;;;;1.42;1.33;;;;;;;;;;5070063;28;20280;-77
2021/08/03 02:02:08;;;;;;;1.38;1.27;;;;;;;;;;5064098;28;20231;-77
2021/08/03 02:04:35;;;;;;;2.15;1.08;;;;;;;;;;5070583;28;20193;-77
2021/08/03 02:07:01;;;;;;;1.33;1.20;;;;;;;;;;5052702;28;20213;-76
2021/08/03 02:09:27;;;;;;;1.77;1.67;;;;;;;;;;5057472;28;20173;-77
2021/08/03 02:11:53;;;;;;;2.45;1.20;;;;;;;;;;5045490;28;20550;-77
2021/08/03 02:14:23;;;;;;;1.63;1.52;;;;;;;;;;5037183;28;20232;-77
2021/08/03 02:16:49;;;;;;;0.90;0.80;;;;;;;;;;5045488;28;20616;-78
2021/08/03 02:19:15;;;;;;;2.40;1.52;;;;;;;;;;5058369;28;20185;-78
2021/08/03 02:21:44;;;;;;;1.30;1.20;;;;;;;;;;5058367;28;20576;-78
2021/08/03 02:24:11;;;;;;;3.95;1.95;;;;;;;;;;5058259;28;20490;-78
2021/08/03 02:26:37;;;;;;;1.80;1.70;;;;;;;;;;5056887;28;20264;-77
2021/08/03 02:29:03;;;;;;;1.48;1.05;;;;;;;;;;5033131;28;20190;-77
2021/08/03 02:31:38;;;;;;;1.17;1.08;;;;;;;;;;5041133;28;20197;-78
2021/08/03 02:34:10;;;;;;;1.60;1.35;;;;;;;;;;5047151;28;20174;-77
2021/08/03 02:36:40;;;;;;;1.30;1.20;;;;;;;;;;5055277;28;20192;-77
2021/08/03 02:39:06;;;;;;;2.03;1.20;;;;;;;;;;5058426;28;20187;-77
2021/08/03 02:41:33;;;;;;;2.50;2.40;;;;;;;;;;5065547;28;20217;-78
2021/08/03 02:43:59;;;;;;;2.72;1.25;;;;;;;;;;5059248;28;20190;-78
2021/08/03 02:46:27;;;;;;;1.40;1.30;;;;;;;;;;5048910;28;20686;-77
2021/08/03 02:49:01;;;;;;;1.20;1.10;;;;;;;;;;5058534;28;20608;-76
2021/08/03 02:51:31;;;;;;;1.20;1.10;;;;;;;;;;5058996;28;20209;-77
2021/08/03 02:53:59;;;;;;;2.40;1.30;;;;;;;;;;5057950;28;20183;-77
2021/08/03 02:56:27;;;;;;;0.90;0.80;;;;;;;;;;5057713;28;20255;-78
2021/08/03 02:59:01;;;;;;;0.93;0.80;;;;;;;;;;5051089;28;20207;-76
2021/08/03 03:01:28;;;;;;;3.83;1.50;;;;;;;;;;5041941;28;20220;-77
2021/08/03 03:03:56;;;;;;;0.98;0.82;;;;;;;;;;5057336;28;20201;-77
2021/08/03 03:06:24;;;;;;;1.65;1.55;;;;;;;;;;5044229;28;20207;-77
2021/08/03 03:08:50;;;;;;;2.85;2.65;;;;;;;;;;5060692;28;20185;-77
2021/08/03 03:11:17;;;;;;;1.33;1.23;;;;;;;;;;5041950;28;20206;-78
2021/08/03 03:13:52;;;;;;;1.65;0.93;;;;;;;;;;5057227;28;20262;-77
2021/08/03 03:16:19;;;;;;;1.52;1.13;;;;;;;;;;5051811;28;20671;-78
2021/08/03 03:18:46;;;;;;;1.30;1.05;;;;;;;;;;5055440;28;20247;-76
2021/08/03 03:21:15;;;;;;;2.45;2.35;;;;;;;;;;5061758;28;20253;-76
2021/08/03 03:23:41;;;;;;;1.15;1.05;;;;;;;;;;5057255;28;20474;-77
2021/08/03 03:26:07;;;;;;;2.75;1.88;;;;;;;;;;5056418;28;20206;-77
2021/08/03 03:28:35;;;;;;;1.48;1.38;;;;;;;;;;5053353;28;20238;-76
2021/08/03 03:31:02;;;;;;;1.02;0.90;;;;;;;;;;5036403;28;20213;-77
2021/08/03 03:33:29;;;;;;;1.83;1.73;;;;;;;;;;5059808;28;20187;-76
2021/08/03 03:35:57;;;;;;;1.27;0.97;;;;;;;;;;5036522;28;20203;-77
2021/08/03 03:38:25;;;;;;;2.63;2.42;;;;;;;;;;5039960;28;20433;-76
2021/08/03 03:40:51;;;;;;;1.70;1.60;;;;;;;;;;5055239;28;20290;-77
2021/08/03 03:43:18;;;;;;;1.45;1.23;;;;;;;;;;5037117;28;20189;-77
2021/08/03 03:45:46;;;;;;;0.80;0.60;;;;;;;;;;5042794;28;20198;-76
2021/08/03 03:48:13;;;;;;;1.90;1.60;;;;;;;;;;5049299;28;20757;-77
2021/08/03 03:50:47;;;;;;;1.33;1.23;;;;;;;;;;5055599;28;20404;-77
2021/08/03 03:53:14;;;;;;;1.75;1.65;;;;;;;;;;5039912;28;20191;-77
2021/08/03 03:55:46;;;;;;;2.90;2.80;;;;;;;;;;5048226;28;20210;-76
2021/08/03 03:58:12;;;;;;;1.50;1.40;;;;;;;;;;5055157;28;20425;-77
2021/08/03 04:00:39;;;;;;;1.65;1.55;;;;;;;;;;5047335;28;20191;-77
2021/08/03 04:03:05;;;;;;;7.07;2.90;;;;;;;;;;5053990;28;20190;-77
2021/08/03 04:05:32;;;;;;;1.75;1.30;;;;;;;;;;5055442;28;20597;-77
2021/08/03 04:07:58;;;;;;;0.90;0.70;;;;;;;;;;5035637;28;20959;-77
2021/08/03 04:10:31;;;;;;;1.27;1.07;;;;;;;;;;5055624;28;20182;-77
2021/08/03 04:12:58;;;;;;;1.73;1.40;;;;;;;;;;5061543;28;20425;-76
2021/08/03 04:15:24;;;;;;;1.50;1.40;;;;;;;;;;5055011;28;20189;-78
2021/08/03 04:17:50;;;;;;;2.55;1.85;;;;;;;;;;5048026;28;20661;-78
2021/08/03 04:20:16;;;;;;;1.50;1.40;;;;;;;;;;5039788;28;20190;-78
2021/08/03 04:22:42;;;;;;;1.45;1.35;;;;;;;;;;5036214;28;20489;-76
2021/08/03 04:25:09;;;;;;;1.30;1.00;;;;;;;;;;5037680;28;20193;-78
2021/08/03 04:27:34;;;;;;;1.75;1.13;;;;;;;;;;5021021;28;20477;-78
2021/08/03 04:30:00;;;;;;;1.57;1.47;;;;;;;;;;5060690;28;20185;-78
2021/08/03 04:32:26;;;;;;;1.27;1.10;;;;;;;;;;5062991;28;20456;-77
2021/08/03 04:34:52;;;;;;;1.70;1.60;;;;;;;;;;5042639;28;20182;-78
2021/08/03 04:37:18;;;;;;;1.73;1.63;;;;;;;;;;5062858;28;20428;-78
2021/08/03 04:39:44;;;;;;;1.00;0.90;;;;;;;;;;5061918;28;20459;-77
2021/08/03 04:42:10;;;;;;;1.10;0.90;;;;;;;;;;5062344;28;20451;-77
2021/08/03 04:44:36;;;;;;;1.10;1.00;;;;;;;;;;5063146;28;20551;-77
2021/08/03 04:47:03;;;;;;;1.53;1.43;;;;;;;;;;5045127;28;20501;-77
2021/08/03 04:49:29;;;;;;;3.22;2.95;;;;;;;;;;5062076;28;20440;-78
2021/08/03 04:51:55;;;;;;;3.57;1.70;;;;;;;;;;5062133;28;20202;-78
2021/08/03 04:54:21;;;;;;;1.50;1.05;;;;;;;;;;5062655;28;20406;-78
2021/08/03 04:56:47;;;;;;;1.17;0.90;;;;;;;;;;5061128;28;20180;-77
2021/08/03 04:59:13;;;;;;;1.53;1.43;;;;;;;;;;5062300;28;20412;-77
2021/08/03 05:01:38;;;;;;;1.10;1.00;;;;;;;;;;5059919;28;20467;-78
2021/08/03 05:04:05;;;;;;;1.50;1.40;;;;;;;;;;5047016;28;20816;-77
2021/08/03 05:06:31;;;;;;;1.17;1.08;;;;;;;;;;5057043;28;20441;-78
2021/08/03 05:08:56;;;;;;;1.03;0.90;;;;;;;;;;5063282;28;20170;-77
2021/08/03 05:11:22;;;;;;;2.50;1.70;;;;;;;;;;5064556;28;20440;-78
2021/08/03 05:13:48;;;;;;;1.63;1.30;;;;;;;;;;5064881;28;20425;-77
2021/08/03 05:16:15;;;;;;;1.27;1.17;;;;;;;;;;5063955;28;20253;-79
2021/08/03 05:18:40;;;;;;;1.00;0.70;;;;;;;;;;5065595;28;20924;-79
2021/08/03 05:21:06;;;;;;;5.43;1.87;;;;;;;;;;5075811;28;20207;-78
2021/08/03 05:23:32;;;;;;;1.70;1.35;;;;;;;;;;5064576;28;20437;-78
2021/08/03 05:25:58;;;;;;;1.67;1.57;;;;;;;;;;5063451;28;20190;-79
2021/08/03 05:28:24;;;;;;;5.13;1.67;;;;;;;;;;5062882;28;20554;-78
2021/08/03 05:30:50;;;;;;;1.67;1.57;;;;;;;;;;5062520;28;20436;-78
2021/08/03 05:33:16;;;;;;;1.77;1.65;;;;;;;;;;5055523;28;20779;-79
2021/08/03 05:35:42;;;;;;;1.60;1.50;;;;;;;;;;5063948;28;20185;-78
2021/08/03 05:38:09;;;;;;;3.05;1.52;;;;;;;;;;5061566;28;20870;-78
2021/08/03 05:40:35;;;;;;;2.53;2.33;;;;;;;;;;5061000;28;20182;-79
2021/08/03 05:43:01;;;;;;;1.10;1.00;;;;;;;;;;5042782;28;20220;-79
2021/08/03 05:45:27;;;;;;;1.65;1.55;;;;;;;;;;5063440;28;20198;-78
2021/08/03 05:47:53;;;;;;;1.00;0.90;;;;;;;;;;5045123;28;20223;-78
2021/08/03 05:50:20;;;;;;;1.38;1.17;;;;;;;;;;5043793;28;20445;-78
2021/08/03 05:52:46;;;;;;;1.10;1.00;;;;;;;;;;5076478;22;20217;-76
2021/08/03 05:55:12;;;;;;;1.00;0.90;;;;;;;;;;5073263;28;20193;-76
2021/08/03 05:57:38;;;;;;;2.25;1.20;;;;;;;;;;5072369;28;20428;-76
2021/08/03 06:00:04;;;;;;;1.30;1.17;;;;;;;;;;5071804;28;20658;-76
2021/08/03 06:02:30;;;;;;;1.00;0.77;;;;;;;;;;5064811;28;20811;-76
2021/08/03 06:04:56;;;;;;;1.73;1.27;;;;;;;;;;5052056;28;20207;-76
2021/08/03 06:07:25;;;;;;;1.40;1.30;;;;;;;;;;5052603;28;20469;-76
2021/08/03 06:09:56;;;;;;;2.38;2.17;;;;;;;;;;5044444;28;20207;-76
2021/08/03 06:12:23;;;;;;;2.22;2.03;;;;;;;;;;5033057;28;20199;-76
2021/08/03 06:14:52;;;;;;;1.05;0.95;;;;;;;;;;5051918;28;20204;-76
2021/08/03 06:17:18;;;;;;;1.02;0.82;;;;;;;;;;5052832;28;20174;-76
2021/08/03 06:19:49;;;;;;;2.97;1.63;;;;;;;;;;5051027;28;20672;-76
2021/08/03 06:22:16;;;;;;;1.10;0.97;;;;;;;;;;5049003;28;20187;-76
2021/08/03 06:24:42;;;;;;;0.88;0.70;;;;;;;;;;5052315;28;20466;-76
2021/08/03 06:27:09;;;;;;;1.75;1.65;;;;;;;;;;5052406;28;20290;-77
2021/08/03 06:29:37;;;;;;;1.40;1.20;;;;;;;;;;5050788;28;20184;-76
2021/08/03 06:32:03;;;;;;;0.88;0.88;;;;;;;;;;5052829;28;20418;-76
2021/08/03 06:34:29;;;;;;;2.30;1.47;;;;;;;;;;5050444;28;20208;-76
2021/08/03 06:36:55;;;;;;;2.30;1.37;;;;;;;;;;5052269;28;20862;-76
2021/08/03 06:39:22;;;;;;;1.30;1.10;;;;;;;;;;5052564;28;20452;-76
2021/08/03 06:41:48;;;;;;;2.35;2.00;;;;;;;;;;5052054;28;20466;-76
2021/08/03 06:44:14;;;;;;;1.20;1.10;;;;;;;;;;5051757;28;20207;-76
2021/08/03 06:46:44;;;;;;;1.93;1.73;;;;;;;;;;5050498;28;20425;-76
2021/08/03 06:49:11;;;;;;;3.45;2.50;;;;;;;;;;5050248;28;20463;-76
2021/08/03 06:51:39;;;;;;;1.38;1.27;;;;;;;;;;5052411;28;20750;-76
2021/08/03 06:54:05;;;;;;;3.27;1.63;;;;;;;;;;5051572;28;20219;-76
2021/08/03 06:56:36;;;;;;;1.60;1.30;;;;;;;;;;5051111;28;20433;-76
2021/08/03 06:59:07;;;;;;;1.80;1.70;;;;;;;;;;5051081;28;20946;-76
2021/08/03 07:01:51;;;;;;;1.50;1.40;;;;;;;;;;5051302;28;20202;-76
2021/08/03 07:04:22;;;;;;;1.10;1.00;;;;;;;;;;5049703;28;20204;-76
2021/08/03 07:06:49;;;;;;;0.90;0.80;;;;;;;;;;5050311;28;20211;-76
2021/08/03 07:09:15;;;;;;;1.10;1.00;;;;;;;;;;5052274;28;20175;-76
2021/08/03 07:11:41;;;;;;;1.50;1.40;;;;;;;;;;5051401;28;20857;-76
2021/08/03 07:14:08;;;;;;;0.80;0.70;;;;;;;;;;5051975;28;20262;-76
2021/08/03 07:16:35;;;;;;;3.35;1.65;;;;;;;;;;5050654;28;20439;-76
2021/08/03 07:19:02;;;;;;;1.47;1.10;;;;;;;;;;5049872;28;20194;-76
2021/08/03 07:21:28;;;;;;;1.20;0.90;;;;;;;;;;5051034;28;20940;-76
2021/08/03 07:23:55;;;;;;;2.50;1.43;;;;;;;;;;5051890;28;20200;-76
2021/08/03 07:26:21;;;;;;;1.27;1.17;;;;;;;;;;5035096;28;20471;-76
2021/08/03 07:28:47;;;;;;;1.63;1.20;;;;;;;;;;5032191;28;20466;-76
2021/08/03 07:31:13;;;;;;;1.10;1.00;;;;;;;;;;5050280;28;20841;-76
2021/08/03 07:33:39;;;;;;;0.93;0.83;;;;;;;;;;5051496;28;20455;-76
2021/08/03 07:36:05;;;;;;;1.93;1.63;;;;;;;;;;5049417;28;20426;-76
2021/08/03 07:38:31;;;;;;;1.43;1.33;;;;;;;;;;5051745;28;20412;-76
2021/08/03 07:40:57;;;;;;;1.67;1.00;;;;;;;;;;5049718;28;20438;-76
2021/08/03 07:43:23;;;;;;;1.80;1.70;;;;;;;;;;5051615;28;20422;-76
2021/08/03 07:45:49;;;;;;;1.57;0.80;;;;;;;;;;5050507;28;20451;-76
2021/08/03 07:48:16;;;;;;;1.73;1.63;;;;;;;;;;5051027;28;20533;-76
2021/08/03 07:50:42;;;;;;;3.27;1.37;;;;;;;;;;5050521;28;20509;-76
2021/08/03 07:53:08;;;;;;;1.00;0.90;;;;;;;;;;5051368;28;20481;-76
2021/08/03 07:55:34;;;;;;;1.27;0.90;;;;;;;;;;5050748;28;20845;-76
2021/08/03 07:58:00;;;;;;;1.87;1.50;;;;;;;;;;5051044;28;20434;-76
2021/08/03 08:00:26;;;;;;;1.37;1.10;;;;;;;;;;5049840;28;20840;-76
2021/08/03 08:02:52;;;;;;;1.67;1.57;;;;;;;;;;5049540;28;20498;-76
2021/08/03 08:05:18;;;;;;;1.10;1.00;;;;;;;;;;5053166;28;20401;-76
2021/08/03 08:07:44;;;;;;;0.90;0.80;;;;;;;;;;5054208;28;20553;-76
2021/08/03 08:10:10;;;;;;;1.10;1.00;;;;;;;;;;5055328;28;20513;-76
2021/08/03 08:12:36;;;;;;;1.20;1.10;;;;;;;;;;5055387;28;20408;-76
2021/08/03 08:15:02;;;;;;;1.67;1.00;;;;;;;;;;5053922;28;20442;-76
2021/08/03 08:17:28;;;;;;;0.97;0.90;;;;;;;;;;5055041;28;20967;-76
2021/08/03 08:19:54;;;;;;;1.47;1.30;;;;;;;;;;5053163;28;20418;-76
2021/08/03 08:22:20;;;;;;;1.00;0.90;;;;;;;;;;5055429;28;20415;-76
2021/08/03 08:24:46;;;;;;;1.33;1.23;;;;;;;;;;5040779;28;20469;-76
2021/08/03 08:27:12;;;;;;;1.00;0.90;;;;;;;;;;5035002;28;20462;-76
2021/08/03 08:29:39;;;;;;;1.77;1.67;;;;;;;;;;5053420;28;20406;-77
2021/08/03 08:32:06;;;;;;;1.00;0.80;;;;;;;;;;5054608;28;20461;-76
2021/08/03 08:34:32;;;;;;;1.83;1.50;;;;;;;;;;5052793;28;20443;-76
2021/08/03 08:36:58;;;;;;;1.83;0.87;;;;;;;;;;5056380;28;20929;-76
2021/08/03 08:39:24;;;;;;;0.80;0.70;;;;;;;;;;5055547;28;20460;-76
2021/08/03 08:41:50;;;;;;;1.00;0.90;;;;;;;;;;5053988;28;20455;-76
2021/08/03 08:44:19;;;;;;;1.30;1.00;;;;;;;;;;5055673;28;20430;-76
2021/08/03 08:46:46;;;;;;;1.27;1.17;;;;;;;;;;5052704;28;20446;-76
2021/08/03 08:49:14;;;;;;;1.57;1.23;;;;;;;;;;5054748;28;20442;-76
2021/08/03 08:51:41;;;;;;;1.57;1.47;;;;;;;;;;5052638;28;20554;-76
2021/08/03 08:54:07;;;;;;;1.50;1.00;;;;;;;;;;5054497;28;20455;-76
2021/08/03 08:56:33;;;;;;;0.80;0.60;;;;;;;;;;5051653;28;20442;-76
2021/08/03 08:58:59;;;;;;;1.07;0.73;;;;;;;;;;5054884;28;20386;-76
2021/08/03 09:01:25;;;;;;;1.13;0.93;;;;;;;;;;5053893;28;20420;-76
2021/08/03 09:03:51;;;;;;;1.00;0.83;;;;;;;;;;5052686;28;20448;-77
2021/08/03 09:06:21;;;;;;;0.80;0.70;;;;;;;;;;5055764;28;20389;-78
2021/08/03 09:08:49;;;;;;;2.40;1.10;;;;;;;;;;5057222;28;20745;-78
2021/08/03 09:11:16;;;;;;;0.93;0.77;;;;;;;;;;5056017;28;20919;-79
2021/08/03 09:13:54;;;;;;;1.13;1.02;;;;;;;;;;5050255;28;20862;-78
2021/08/03 09:16:21;;;;;;;0.87;0.80;;;;;;;;;;5055203;28;20180;-78
2021/08/03 09:18:47;;;;;;;1.10;0.87;;;;;;;;;;5056557;28;20494;-77
2021/08/03 09:21:27;;;;;;;1.10;1.00;;;;;;;;;;5057991;28;20412;-78
2021/08/03 09:23:54;;;;;;;1.10;0.97;;;;;;;;;;5055316;28;20484;-78
2021/08/03 09:26:21;;;;;;;0.80;0.60;;;;;;;;;;5055468;28;20444;-78
2021/08/03 09:29:00;;;;;;;1.20;1.00;;;;;;;;;;5043613;28;20443;-78
2021/08/03 09:31:27;;;;;;;0.80;0.60;;;;;;;;;;5053139;28;20431;-78
2021/08/03 09:33:53;;;;;;;0.90;0.70;;;;;;;;;;5046766;28;20400;-77
2021/08/03 09:36:39;;;;;;;0.77;0.60;;;;;;;;;;5043255;28;20398;-79
2021/08/03 09:39:05;;;;;;;2.20;1.70;;;;;;;;;;5055153;28;20418;-78
2021/08/03 09:41:45;;;;;;;1.10;0.80;;;;;;;;;;5056041;28;20447;-78
2021/08/03 09:44:14;;;;;;;0.93;0.70;;;;;;;;;;5061980;28;20777;-78
2021/08/03 09:46:40;;;;;;;1.50;0.80;;;;;;;;;;5073345;28;20431;-78
2021/08/03 09:49:06;;;;;;;0.90;0.70;;;;;;;;;;5057146;28;20541;-78
2021/08/03 09:51:32;;;;;;;0.80;0.80;;;;;;;;;;5057412;28;20776;-78
2021/08/03 09:54:01;;;;;;;1.83;0.83;;;;;;;;;;5055133;28;20452;-79
2021/08/03 09:56:27;;;;;;;2.80;1.37;;;;;;;;;;5051373;28;20431;-78
2021/08/03 09:58:54;;;;;;;1.07;0.97;;;;;;;;;;5058418;28;20411;-78
2021/08/03 10:01:23;;;;;;;0.80;0.80;;;;;;;;;;5051288;28;20432;-78
2021/08/03 10:03:50;;;;;;;0.90;0.80;;;;;;;;;;5056852;28;20440;-77
2021/08/03 10:06:18;;;;;;;0.73;0.60;;;;;;;;;;5056685;28;20574;-78
2021/08/03 10:08:44;;;;;;;0.80;0.80;;;;;;;;;;5055163;28;20480;-77
2021/08/03 10:11:10;;;;;;;1.90;1.13;;;;;;;;;;5057186;28;20893;-79
2021/08/03 10:13:36;;;;;;;0.80;0.70;;;;;;;;;;5056016;28;20419;-79
2021/08/03 10:16:02;;;;;;;1.77;1.30;;;;;;;;;;5056242;28;20436;-77
2021/08/03 10:18:30;;;;;;;0.80;0.70;;;;;;;;;;5056194;28;20431;-78
2021/08/03 10:20:56;;;;;;;3.67;1.10;;;;;;;;;;5056250;28;20441;-77
2021/08/03 10:23:22;;;;;;;1.10;0.80;;;;;;;;;;5063683;28;20444;-78
2021/08/03 10:25:48;;;;;;;1.43;1.33;;;;;;;;;;5058255;28;20402;-77
2021/08/03 10:28:22;;;;;;;1.10;0.90;;;;;;;;;;5057306;28;20471;-78
2021/08/03 10:30:49;;;;;;;1.13;1.00;;;;;;;;;;5046220;28;20916;-77
2021/08/03 10:33:38;;;;;;;0.90;0.70;;;;;;;;;;5057886;28;20429;-78
2021/08/03 10:36:04;;;;;;;1.73;0.77;;;;;;;;;;5058309;28;20470;-78
2021/08/03 10:38:29;;;;;;;0.97;0.87;;;;;;;;;;5053232;28;20939;-77
2021/08/03 10:40:57;;;;;;;0.93;0.83;;;;;;;;;;5049871;28;20469;-77
2021/08/03 10:43:22;;;;;;;1.53;1.17;;;;;;;;;;5049498;28;20988;-77
2021/08/03 10:45:50;;;;;;;1.00;0.90;;;;;;;;;;5046932;28;20492;-77
2021/08/03 10:48:42;;;;;;;1.20;1.10;;;;;;;;;;5029533;28;20504;-77
2021/08/03 10:51:14;;;;;;;1.30;1.20;;;;;;;;;;5050216;28;20431;-76
2021/08/03 10:53:52;;;;;;;0.90;0.80;;;;;;;;;;5049221;28;20462;-76
2021/08/03 10:56:18;;;;;;;0.80;0.67;;;;;;;;;;5051164;28;20410;-76
2021/08/03 10:58:45;;;;;;;0.80;0.70;;;;;;;;;;5051783;28;20787;-76
2021/08/03 11:01:11;;;;;;;0.90;0.90;;;;;;;;;;5048307;28;20435;-76
2021/08/03 11:03:39;;;;;;;1.67;1.00;;;;;;;;;;5050727;28;20475;-77
2021/08/03 11:06:11;;;;;;;0.80;0.60;;;;;;;;;;5050497;28;20477;-77
2021/08/03 11:08:39;;;;;;;1.07;0.97;;;;;;;;;;5048974;28;20452;-76
2021/08/03 11:11:06;;;;;;;0.80;0.70;;;;;;;;;;5049056;28;20777;-77
2021/08/03 11:13:36;;;;;;;0.90;0.90;;;;;;;;;;5034070;28;20456;-77
2021/08/03 11:16:01;;;;;;;1.57;1.40;;;;;;;;;;5049295;28;20398;-76
2021/08/03 11:18:43;;;;;;;0.80;0.77;;;;;;;;;;5048246;28;22053;-77
2021/08/03 11:21:10;;;;;;;0.80;0.73;;;;;;;;;;5050572;28;20407;-77
2021/08/03 11:23:55;;;;;;;1.00;0.90;;;;;;;;;;5048372;28;20454;-77
2021/08/03 11:26:22;;;;;;;1.10;1.00;;;;;;;;;;5049096;28;20447;-77
2021/08/03 11:28:59;;;;;;;0.90;0.77;;;;;;;;;;5067200;28;20453;-77
2021/08/03 11:31:45;;;;;;;1.10;1.00;;;;;;;;;;5048389;28;20509;-77
2021/08/03 11:34:12;;;;;;;1.27;0.80;;;;;;;;;;5049388;28;20888;-77
2021/08/03 11:36:38;;;;;;;2.07;1.00;;;;;;;;;;5049736;28;20425;-78
2021/08/03 11:39:20;;;;;;;2.57;2.37;;;;;;;;;;5048184;28;20922;-77
2021/08/03 11:41:47;;;;;;;1.07;0.97;;;;;;;;;;5050999;28;20919;-77
2021/08/03 11:44:17;;;;;;;0.70;0.60;;;;;;;;;;5049113;28;20839;-77
2021/08/03 11:46:43;;;;;;;0.83;0.70;;;;;;;;;;5049068;28;20419;-77
2021/08/03 11:49:10;;;;;;;0.80;0.80;;;;;;;;;;5047959;28;20439;-78
2021/08/03 11:51:43;;;;;;;0.80;0.63;;;;;;;;;;5049852;28;20927;-78
2021/08/03 11:54:13;;;;;;;0.80;0.60;;;;;;;;;;5112870;22;20482;-77
2021/08/03 11:56:39;;;;;;;0.90;0.67;;;;;;;;;;5100515;28;20451;-79
2021/08/03 11:59:05;;;;;;;0.80;0.70;;;;;;;;;;5092889;28;20418;-78
2021/08/03 12:01:50;;;;;;;0.80;0.77;;;;;;;;;;5097173;28;20400;-79
2021/08/03 12:04:16;;;;;;;0.93;0.80;;;;;;;;;;5099819;28;20462;-78
2021/08/03 12:06:43;;;;;;;0.70;0.60;;;;;;;;;;5101650;28;20412;-79
2021/08/03 12:09:09;;;;;;;0.70;0.60;;;;;;;;;;5098188;28;20518;-79
2021/08/03 12:11:35;;;;;;;1.13;0.77;;;;;;;;;;5096664;28;20404;-78
2021/08/03 12:14:11;;;;;;;0.80;0.70;;;;;;;;;;5091528;28;20505;-78
2021/08/03 12:16:37;;;;;;;1.00;0.90;;;;;;;;;;5095149;28;20469;-78
2021/08/03 12:19:04;;;;;;;0.70;0.60;;;;;;;;;;5104125;28;20435;-77
2021/08/03 12:21:37;;;;;;;1.43;0.70;;;;;;;;;;5091235;28;20427;-78
2021/08/03 12:24:07;;;;;;;0.70;0.70;;;;;;;;;;5107681;28;20445;-78
2021/08/03 12:26:33;;;;;;;1.43;1.33;;;;;;;;;;5107661;28;20433;-79
2021/08/03 12:28:59;;;;;;;0.70;0.60;;;;;;;;;;5108853;28;20469;-78
2021/08/03 12:31:32;;;;;;;0.73;0.60;;;;;;;;;;5096419;28;20432;-79
2021/08/03 12:34:07;;;;;;;1.00;0.83;;;;;;;;;;5089424;28;20816;-80
2021/08/03 12:36:45;;;;;;;1.10;0.70;;;;;;;;;;5088583;28;20426;-80
2021/08/03 12:39:19;;;;;;;0.70;0.60;;;;;;;;;;5095908;28;20404;-80
2021/08/03 12:42:03;;;;;;;0.87;0.70;;;;;;;;;;5095970;28;20403;-80
2021/08/03 12:44:30;;;;;;;0.70;0.60;;;;;;;;;;5104263;28;20478;-77
2021/08/03 12:47:05;;;;;;;0.70;0.50;;;;;;;;;;5109872;28;20485;-77
2021/08/03 12:49:36;;;;;;;1.10;1.00;;;;;;;;;;5123485;28;20502;-77
2021/08/03 12:52:09;;;;;;;0.90;0.70;;;;;;;;;;5112962;28;20417;-77
2021/08/03 12:54:35;;;;;;;0.80;0.60;;;;;;;;;;5112841;28;20457;-77
2021/08/03 12:57:03;;;;;;;0.70;0.63;;;;;;;;;;5115260;28;20378;-76
2021/08/03 12:59:32;;;;;;;0.80;0.60;;;;;;;;;;5113608;28;20522;-78
2021/08/03 13:01:59;;;;;;;0.87;0.80;;;;;;;;;;5108627;28;20447;-79
2021/08/03 13:04:25;;;;;;;0.70;0.50;;;;;;;;;;5100695;28;20505;-81
2021/08/03 13:06:51;;;;;;;0.80;0.60;;;;;;;;;;5103750;28;20420;-80
2021/08/03 13:09:17;;;;;;;0.70;0.70;;;;;;;;;;5099668;28;20433;-79
2021/08/03 13:11:43;;;;;;;0.80;0.70;;;;;;;;;;5083465;28;20479;-79
2021/08/03 13:14:09;;;;;;;0.70;0.60;;;;;;;;;;5088324;28;20450;-79
2021/08/03 13:16:35;;;;;;;0.70;0.50;;;;;;;;;;5105567;28;20449;-78
2021/08/03 13:19:01;;;;;;;0.70;0.50;;;;;;;;;;5098393;28;21135;-80
2021/08/03 13:21:27;;;;;;;0.80;0.80;;;;;;;;;;5085265;28;20414;-79
2021/08/03 13:23:53;;;;;;;0.70;0.50;;;;;;;;;;5084321;28;20417;-79
2021/08/03 13:26:19;;;;;;;0.80;0.80;;;;;;;;;;5089332;28;20441;-80
2021/08/03 13:28:45;;;;;;;0.70;0.50;;;;;;;;;;5105082;28;20440;-80
2021/08/03 13:31:11;;;;;;;0.90;0.80;;;;;;;;;;5104973;28;20441;-80
2021/08/03 13:33:37;;;;;;;0.70;0.57;;;;;;;;;;5090222;28;20462;-80
2021/08/03 13:36:03;;;;;;;0.73;0.60;;;;;;;;;;5102781;28;20401;-79
2021/08/03 13:38:29;;;;;;;0.80;0.63;;;;;;;;;;5098444;28;20443;-80
2021/08/03 13:40:55;;;;;;;0.70;0.50;;;;;;;;;;5091976;28;20435;-79
2021/08/03 13:43:21;;;;;;;0.70;0.60;;;;;;;;;;5100016;28;20459;-78
2021/08/03 13:45:47;;;;;;;1.30;1.27;;;;;;;;;;5101747;28;20463;-79
2021/08/03 13:48:13;;;;;;;0.80;0.70;;;;;;;;;;5099795;28;21019;-79
2021/08/03 13:50:39;;;;;;;0.70;0.60;;;;;;;;;;5101837;28;20427;-79
2021/08/03 13:53:05;;;;;;;0.77;0.60;;;;;;;;;;5104912;28;20409;-80
2021/08/03 13:55:32;;;;;;;0.90;0.70;;;;;;;;;;5120206;28;20436;-78
2021/08/03 13:57:58;;;;;;;0.70;0.60;;;;;;;;;;5104722;28;20391;-79
2021/08/03 14:00:24;;;;;;;0.70;0.70;;;;;;;;;;5104114;28;20512;-80
2021/08/03 14:02:50;;;;;;;0.70;0.63;;;;;;;;;;5099111;28;20462;-80
2021/08/03 14:05:16;;;;;;;1.30;0.77;;;;;;;;;;5101031;28;20473;-81
2021/08/03 14:07:43;;;;;;;0.90;0.80;;;;;;;;;;5082353;28;20464;-80
2021/08/03 14:10:09;;;;;;;0.70;0.50;;;;;;;;;;5091148;28;21076;-80
2021/08/03 14:12:35;;;;;;;1.63;0.70;;;;;;;;;;5090109;28;20937;-80
2021/08/03 14:15:01;;;;;;;1.03;0.70;;;;;;;;;;5093888;28;20447;-79
2021/08/03 14:17:27;;;;;;;0.70;0.60;;;;;;;;;;5097418;28;20449;-79
2021/08/03 14:19:53;;;;;;;0.90;0.60;;;;;;;;;;5103318;28;20414;-80
2021/08/03 14:22:19;;;;;;;0.70;0.60;;;;;;;;;;5094138;28;20462;-81
2021/08/03 14:24:45;;;;;;;0.70;0.50;;;;;;;;;;5084489;28;20427;-80
2021/08/03 14:27:11;;;;;;;0.70;0.70;;;;;;;;;;5088697;28;20471;-80
2021/08/03 14:29:37;;;;;;;0.70;0.60;;;;;;;;;;5090492;28;20484;-79
2021/08/03 14:32:04;;;;;;;0.70;0.70;;;;;;;;;;5098799;28;20968;-80
2021/08/03 14:34:30;;;;;;;0.70;0.60;;;;;;;;;;5101145;28;20466;-78
2021/08/03 14:36:56;;;;;;;0.70;0.70;;;;;;;;;;5103378;28;20413;-79
2021/08/03 14:39:22;;;;;;;2.07;1.70;;;;;;;;;;5099136;28;20867;-78
2021/08/03 14:41:48;;;;;;;2.93;2.73;;;;;;;;;;5079028;28;20428;-77
2021/08/03 14:44:14;;;;;;;0.80;0.80;;;;;;;;;;5082529;28;20456;-78
2021/08/03 14:46:41;;;;;;;0.80;0.70;;;;;;;;;;5079240;28;20417;-78